sensor_id;sensor_type;location;lat;lon;timestamp;temperature;humidity
70851;DHT22;58475;49.662;9.636;2024-03-07T00:00:20;4.65;84.33
70851;DHT22;58475;49.662;9.636;2024-03-07T00:02:50;4.59;84.34
70851;DHT22;58475;49.662;9.636;2024-03-07T00:05:18;4.49;84.47
70851;DHT22;58475;49.662;9.636;2024-03-07T00:07:43;4.45;84.65
70851;DHT22;58475;49.662;9.636;2024-03-07T00:10:09;4.40;84.82
70851;DHT22;58475;49.662;9.636;2024-03-07T00:12:36;4.37;84.89
70851;DHT22;58475;49.662;9.636;2024-03-07T00:15:05;4.30;85.22
70851;DHT22;58475;49.662;9.636;2024-03-07T00:17:31;4.31;85.01
70851;DHT22;58475;49.662;9.636;2024-03-07T00:19:56;4.21;85.32
70851;DHT22;58475;49.662;9.636;2024-03-07T00:22:22;4.15;85.68
70851;DHT22;58475;49.662;9.636;2024-03-07T00:24:48;4.10;86.17
70851;DHT22;58475;49.662;9.636;2024-03-07T00:27:13;4.01;86.33
70851;DHT22;58475;49.662;9.636;2024-03-07T00:29:42;3.95;86.57
70851;DHT22;58475;49.662;9.636;2024-03-07T00:32:08;3.89;86.65
70851;DHT22;58475;49.662;9.636;2024-03-07T00:34:34;3.84;86.68
70851;DHT22;58475;49.662;9.636;2024-03-07T00:36:59;3.77;86.92
70851;DHT22;58475;49.662;9.636;2024-03-07T00:39:25;3.72;86.86
70851;DHT22;58475;49.662;9.636;2024-03-07T00:41:51;3.62;87.11
70851;DHT22;58475;49.662;9.636;2024-03-07T00:44:17;3.49;87.44
70851;DHT22;58475;49.662;9.636;2024-03-07T00:46:42;3.31;88.08
70851;DHT22;58475;49.662;9.636;2024-03-07T00:49:08;3.24;88.28
70851;DHT22;58475;49.662;9.636;2024-03-07T00:51:33;3.15;88.63
70851;DHT22;58475;49.662;9.636;2024-03-07T00:53:58;3.14;88.63
70851;DHT22;58475;49.662;9.636;2024-03-07T00:56:24;3.09;88.75
70851;DHT22;58475;49.662;9.636;2024-03-07T00:58:50;3.04;88.85
70851;DHT22;58475;49.662;9.636;2024-03-07T01:01:16;3.07;89.02
70851;DHT22;58475;49.662;9.636;2024-03-07T01:03:42;2.98;89.21
70851;DHT22;58475;49.662;9.636;2024-03-07T01:06:08;2.94;89.33
70851;DHT22;58475;49.662;9.636;2024-03-07T01:08:36;3.00;89.12
70851;DHT22;58475;49.662;9.636;2024-03-07T01:11:05;2.87;89.66
70851;DHT22;58475;49.662;9.636;2024-03-07T01:13:40;2.65;90.21
70851;DHT22;58475;49.662;9.636;2024-03-07T01:16:06;2.60;90.42
70851;DHT22;58475;49.662;9.636;2024-03-07T01:18:32;2.58;90.34
70851;DHT22;58475;49.662;9.636;2024-03-07T01:21:03;2.50;90.45
70851;DHT22;58475;49.662;9.636;2024-03-07T01:23:30;2.47;90.76
70851;DHT22;58475;49.662;9.636;2024-03-07T01:25:57;2.46;90.65
70851;DHT22;58475;49.662;9.636;2024-03-07T01:28:27;2.40;90.57
70851;DHT22;58475;49.662;9.636;2024-03-07T01:30:56;2.37;90.68
70851;DHT22;58475;49.662;9.636;2024-03-07T01:33:22;2.29;90.82
70851;DHT22;58475;49.662;9.636;2024-03-07T01:35:48;2.23;90.96
70851;DHT22;58475;49.662;9.636;2024-03-07T01:38:14;2.19;90.99
70851;DHT22;58475;49.662;9.636;2024-03-07T01:40:41;2.15;91.08
70851;DHT22;58475;49.662;9.636;2024-03-07T01:43:07;2.12;91.24
70851;DHT22;58475;49.662;9.636;2024-03-07T01:45:32;2.11;91.26
70851;DHT22;58475;49.662;9.636;2024-03-07T01:47:58;2.11;91.26
70851;DHT22;58475;49.662;9.636;2024-03-07T01:50:24;2.05;91.12
70851;DHT22;58475;49.662;9.636;2024-03-07T01:52:49;2.04;90.95
70851;DHT22;58475;49.662;9.636;2024-03-07T01:55:21;1.97;91.10
70851;DHT22;58475;49.662;9.636;2024-03-07T01:57:47;1.95;91.14
70851;DHT22;58475;49.662;9.636;2024-03-07T02:00:13;1.91;90.96
70851;DHT22;58475;49.662;9.636;2024-03-07T02:02:38;1.89;90.66
70851;DHT22;58475;49.662;9.636;2024-03-07T02:05:04;1.81;90.87
70851;DHT22;58475;49.662;9.636;2024-03-07T02:07:31;1.77;90.96
70851;DHT22;58475;49.662;9.636;2024-03-07T02:10:03;1.68;90.94
70851;DHT22;58475;49.662;9.636;2024-03-07T02:12:29;1.63;91.30
70851;DHT22;58475;49.662;9.636;2024-03-07T02:14:56;1.57;91.35
70851;DHT22;58475;49.662;9.636;2024-03-07T02:17:25;1.54;91.55
70851;DHT22;58475;49.662;9.636;2024-03-07T02:19:51;1.57;91.62
70851;DHT22;58475;49.662;9.636;2024-03-07T02:22:17;1.48;91.63
70851;DHT22;58475;49.662;9.636;2024-03-07T02:24:43;1.48;91.65
70851;DHT22;58475;49.662;9.636;2024-03-07T02:27:08;1.44;92.14
70851;DHT22;58475;49.662;9.636;2024-03-07T02:29:34;1.40;92.23
70851;DHT22;58475;49.662;9.636;2024-03-07T02:32:01;1.37;92.43
70851;DHT22;58475;49.662;9.636;2024-03-07T02:34:27;1.40;92.40
70851;DHT22;58475;49.662;9.636;2024-03-07T02:36:52;1.39;92.47
70851;DHT22;58475;49.662;9.636;2024-03-07T02:39:17;1.40;92.61
70851;DHT22;58475;49.662;9.636;2024-03-07T02:41:43;1.36;92.52
70851;DHT22;58475;49.662;9.636;2024-03-07T02:44:08;1.33;92.54
70851;DHT22;58475;49.662;9.636;2024-03-07T02:46:34;1.24;92.55
70851;DHT22;58475;49.662;9.636;2024-03-07T02:48:59;1.23;92.40
70851;DHT22;58475;49.662;9.636;2024-03-07T02:51:25;1.16;92.48
70851;DHT22;58475;49.662;9.636;2024-03-07T02:53:50;1.19;92.43
70851;DHT22;58475;49.662;9.636;2024-03-07T02:56:16;1.16;92.49
70851;DHT22;58475;49.662;9.636;2024-03-07T02:58:41;1.13;92.79
70851;DHT22;58475;49.662;9.636;2024-03-07T03:01:07;1.10;92.70
70851;DHT22;58475;49.662;9.636;2024-03-07T03:03:32;1.07;92.68
70851;DHT22;58475;49.662;9.636;2024-03-07T03:05:59;1.05;92.82
70851;DHT22;58475;49.662;9.636;2024-03-07T03:08:25;0.97;92.66
70851;DHT22;58475;49.662;9.636;2024-03-07T03:10:54;0.95;92.86
70851;DHT22;58475;49.662;9.636;2024-03-07T03:13:20;0.93;92.89
70851;DHT22;58475;49.662;9.636;2024-03-07T03:15:45;0.95;93.20
70851;DHT22;58475;49.662;9.636;2024-03-07T03:18:11;0.96;93.24
70851;DHT22;58475;49.662;9.636;2024-03-07T03:20:38;0.97;92.88
70851;DHT22;58475;49.662;9.636;2024-03-07T03:23:08;0.99;92.60
70851;DHT22;58475;49.662;9.636;2024-03-07T03:25:38;0.97;92.39
70851;DHT22;58475;49.662;9.636;2024-03-07T03:28:05;0.85;92.70
70851;DHT22;58475;49.662;9.636;2024-03-07T03:30:31;0.78;93.33
70851;DHT22;58475;49.662;9.636;2024-03-07T03:32:58;0.79;93.46
70851;DHT22;58475;49.662;9.636;2024-03-07T03:35:24;0.88;93.56
70851;DHT22;58475;49.662;9.636;2024-03-07T03:37:49;0.91;93.65
70851;DHT22;58475;49.662;9.636;2024-03-07T03:40:15;0.91;93.74
70851;DHT22;58475;49.662;9.636;2024-03-07T03:42:42;1.00;93.75
70851;DHT22;58475;49.662;9.636;2024-03-07T03:45:08;0.96;93.82
70851;DHT22;58475;49.662;9.636;2024-03-07T03:47:37;1.03;93.85
70851;DHT22;58475;49.662;9.636;2024-03-07T03:50:04;1.15;93.73
70851;DHT22;58475;49.662;9.636;2024-03-07T03:52:30;1.20;93.58
70851;DHT22;58475;49.662;9.636;2024-03-07T03:54:57;1.23;93.64
70851;DHT22;58475;49.662;9.636;2024-03-07T03:57:22;1.33;93.46
70851;DHT22;58475;49.662;9.636;2024-03-07T03:59:48;1.34;93.49
70851;DHT22;58475;49.662;9.636;2024-03-07T04:02:13;1.42;93.52
70851;DHT22;58475;49.662;9.636;2024-03-07T04:04:42;1.48;93.25
70851;DHT22;58475;49.662;9.636;2024-03-07T04:07:07;1.48;93.26
70851;DHT22;58475;49.662;9.636;2024-03-07T04:09:33;1.44;93.27
70851;DHT22;58475;49.662;9.636;2024-03-07T04:11:58;1.48;93.04
70851;DHT22;58475;49.662;9.636;2024-03-07T04:14:25;1.44;93.02
70851;DHT22;58475;49.662;9.636;2024-03-07T04:16:51;1.50;93.11
70851;DHT22;58475;49.662;9.636;2024-03-07T04:19:16;1.60;93.03
70851;DHT22;58475;49.662;9.636;2024-03-07T04:21:42;1.79;92.65
70851;DHT22;58475;49.662;9.636;2024-03-07T04:24:08;1.78;92.59
70851;DHT22;58475;49.662;9.636;2024-03-07T04:26:34;1.74;92.81
70851;DHT22;58475;49.662;9.636;2024-03-07T04:28:59;1.77;93.07
70851;DHT22;58475;49.662;9.636;2024-03-07T04:31:25;1.70;93.09
70851;DHT22;58475;49.662;9.636;2024-03-07T04:33:50;1.68;93.09
70851;DHT22;58475;49.662;9.636;2024-03-07T04:36:16;1.63;93.10
70851;DHT22;58475;49.662;9.636;2024-03-07T04:38:42;1.57;93.59
70851;DHT22;58475;49.662;9.636;2024-03-07T04:41:13;1.61;93.83
70851;DHT22;58475;49.662;9.636;2024-03-07T04:43:40;1.70;93.67
70851;DHT22;58475;49.662;9.636;2024-03-07T04:46:07;1.75;93.52
70851;DHT22;58475;49.662;9.636;2024-03-07T04:48:33;1.75;93.45
70851;DHT22;58475;49.662;9.636;2024-03-07T04:50:58;1.85;93.55
70851;DHT22;58475;49.662;9.636;2024-03-07T04:53:24;1.86;93.16
70851;DHT22;58475;49.662;9.636;2024-03-07T04:55:49;1.78;93.12
70851;DHT22;58475;49.662;9.636;2024-03-07T04:58:16;1.81;93.35
70851;DHT22;58475;49.662;9.636;2024-03-07T05:00:41;1.86;92.96
70851;DHT22;58475;49.662;9.636;2024-03-07T05:03:06;1.84;93.19
70851;DHT22;58475;49.662;9.636;2024-03-07T05:05:32;1.86;93.46
70851;DHT22;58475;49.662;9.636;2024-03-07T05:07:57;1.89;93.58
70851;DHT22;58475;49.662;9.636;2024-03-07T05:10:23;1.94;93.40
70851;DHT22;58475;49.662;9.636;2024-03-07T05:12:48;1.97;93.37
70851;DHT22;58475;49.662;9.636;2024-03-07T05:15:14;2.02;93.36
70851;DHT22;58475;49.662;9.636;2024-03-07T05:17:39;1.95;93.78
70851;DHT22;58475;49.662;9.636;2024-03-07T05:20:08;1.92;93.86
70851;DHT22;58475;49.662;9.636;2024-03-07T05:22:38;2.01;93.78
70851;DHT22;58475;49.662;9.636;2024-03-07T05:25:06;1.95;94.02
70851;DHT22;58475;49.662;9.636;2024-03-07T05:27:32;1.95;94.16
70851;DHT22;58475;49.662;9.636;2024-03-07T05:29:58;2.01;93.91
70851;DHT22;58475;49.662;9.636;2024-03-07T05:32:25;2.01;94.06
70851;DHT22;58475;49.662;9.636;2024-03-07T05:34:51;2.01;93.88
70851;DHT22;58475;49.662;9.636;2024-03-07T05:37:19;2.01;94.05
70851;DHT22;58475;49.662;9.636;2024-03-07T05:39:50;2.06;94.16
70851;DHT22;58475;49.662;9.636;2024-03-07T05:42:16;2.09;94.12
70851;DHT22;58475;49.662;9.636;2024-03-07T05:44:42;2.08;94.10
70851;DHT22;58475;49.662;9.636;2024-03-07T05:47:07;2.09;94.11
70851;DHT22;58475;49.662;9.636;2024-03-07T05:49:34;2.06;94.21
70851;DHT22;58475;49.662;9.636;2024-03-07T05:51:59;2.13;93.92
70851;DHT22;58475;49.662;9.636;2024-03-07T05:54:25;2.16;94.10
70851;DHT22;58475;49.662;9.636;2024-03-07T05:56:51;2.16;94.27
70851;DHT22;58475;49.662;9.636;2024-03-07T05:59:16;2.21;94.19
70851;DHT22;58475;49.662;9.636;2024-03-07T06:01:42;2.23;94.17
70851;DHT22;58475;49.662;9.636;2024-03-07T06:04:07;2.25;94.19
70851;DHT22;58475;49.662;9.636;2024-03-07T06:06:36;2.21;94.56
70851;DHT22;58475;49.662;9.636;2024-03-07T06:09:03;2.32;94.37
70851;DHT22;58475;49.662;9.636;2024-03-07T06:11:38;2.37;94.44
70851;DHT22;58475;49.662;9.636;2024-03-07T06:14:05;2.37;94.54
70851;DHT22;58475;49.662;9.636;2024-03-07T06:16:36;2.33;94.82
70851;DHT22;58475;49.662;9.636;2024-03-07T06:19:02;2.37;94.75
70851;DHT22;58475;49.662;9.636;2024-03-07T06:21:29;2.39;95.01
70851;DHT22;58475;49.662;9.636;2024-03-07T06:23:57;2.49;94.78
70851;DHT22;58475;49.662;9.636;2024-03-07T06:26:33;2.50;94.63
70851;DHT22;58475;49.662;9.636;2024-03-07T06:29:17;2.57;94.59
70851;DHT22;58475;49.662;9.636;2024-03-07T06:31:44;2.57;94.40
70851;DHT22;58475;49.662;9.636;2024-03-07T06:34:13;2.64;94.22
70851;DHT22;58475;49.662;9.636;2024-03-07T06:36:39;2.67;94.38
70851;DHT22;58475;49.662;9.636;2024-03-07T06:39:06;2.74;94.17
70851;DHT22;58475;49.662;9.636;2024-03-07T06:41:34;2.87;93.86
70851;DHT22;58475;49.662;9.636;2024-03-07T06:43:59;2.93;93.72
70851;DHT22;58475;49.662;9.636;2024-03-07T06:46:25;3.24;92.63
70851;DHT22;58475;49.662;9.636;2024-03-07T06:48:50;3.77;91.34
70851;DHT22;58475;49.662;9.636;2024-03-07T06:51:16;4.22;89.48
70851;DHT22;58475;49.662;9.636;2024-03-07T06:53:43;4.61;88.92
70851;DHT22;58475;49.662;9.636;2024-03-07T06:56:08;4.73;87.35
70851;DHT22;58475;49.662;9.636;2024-03-07T06:58:34;5.00;85.89
70851;DHT22;58475;49.662;9.636;2024-03-07T07:00:59;5.22;85.22
70851;DHT22;58475;49.662;9.636;2024-03-07T07:03:26;5.34;85.04
70851;DHT22;58475;49.662;9.636;2024-03-07T07:05:53;5.35;82.92
70851;DHT22;58475;49.662;9.636;2024-03-07T07:08:19;5.62;82.09
70851;DHT22;58475;49.662;9.636;2024-03-07T07:10:45;5.79;82.04
70851;DHT22;58475;49.662;9.636;2024-03-07T07:13:11;5.95;81.46
70851;DHT22;58475;49.662;9.636;2024-03-07T07:15:38;6.20;80.72
70851;DHT22;58475;49.662;9.636;2024-03-07T07:18:04;6.38;79.82
70851;DHT22;58475;49.662;9.636;2024-03-07T07:20:31;6.50;78.38
70851;DHT22;58475;49.662;9.636;2024-03-07T07:22:57;6.68;77.17
70851;DHT22;58475;49.662;9.636;2024-03-07T07:25:25;6.80;76.52
70851;DHT22;58475;49.662;9.636;2024-03-07T07:27:52;6.91;76.51
70851;DHT22;58475;49.662;9.636;2024-03-07T07:30:20;7.16;75.05
70851;DHT22;58475;49.662;9.636;2024-03-07T07:32:48;7.43;74.89
70851;DHT22;58475;49.662;9.636;2024-03-07T07:35:13;7.73;74.90
70851;DHT22;58475;49.662;9.636;2024-03-07T07:37:48;7.43;73.10
70851;DHT22;58475;49.662;9.636;2024-03-07T07:40:15;7.88;73.39
70851;DHT22;58475;49.662;9.636;2024-03-07T07:42:45;8.01;73.07
70851;DHT22;58475;49.662;9.636;2024-03-07T07:45:13;7.29;73.09
70851;DHT22;58475;49.662;9.636;2024-03-07T07:47:43;7.01;73.51
70851;DHT22;58475;49.662;9.636;2024-03-07T07:50:10;6.80;74.89
70851;DHT22;58475;49.662;9.636;2024-03-07T07:55:08;6.38;75.54
70851;DHT22;58475;49.662;9.636;2024-03-07T07:57:47;6.34;76.17
70851;DHT22;58475;49.662;9.636;2024-03-07T08:00:14;6.17;75.78
70851;DHT22;58475;49.662;9.636;2024-03-07T08:05:26;6.16;76.00
70851;DHT22;58475;49.662;9.636;2024-03-07T08:07:56;6.05;76.83
70851;DHT22;58475;49.662;9.636;2024-03-07T08:10:26;6.06;76.02
70851;DHT22;58475;49.662;9.636;2024-03-07T08:12:54;6.01;76.65
70851;DHT22;58475;49.662;9.636;2024-03-07T08:15:19;6.01;75.89
70851;DHT22;58475;49.662;9.636;2024-03-07T08:17:46;5.93;75.86
70851;DHT22;58475;49.662;9.636;2024-03-07T08:20:14;6.06;75.54
70851;DHT22;58475;49.662;9.636;2024-03-07T08:22:41;6.07;76.22
70851;DHT22;58475;49.662;9.636;2024-03-07T08:25:08;6.53;76.49
70851;DHT22;58475;49.662;9.636;2024-03-07T08:27:38;7.06;73.90
70851;DHT22;58475;49.662;9.636;2024-03-07T08:30:05;8.14;72.29
70851;DHT22;58475;49.662;9.636;2024-03-07T08:32:38;8.85;70.08
70851;DHT22;58475;49.662;9.636;2024-03-07T08:35:05;9.59;68.34
70851;DHT22;58475;49.662;9.636;2024-03-07T08:37:35;10.14;66.20
70851;DHT22;58475;49.662;9.636;2024-03-07T08:40:02;10.14;66.09
70851;DHT22;58475;49.662;9.636;2024-03-07T08:42:30;9.94;65.82
70851;DHT22;58475;49.662;9.636;2024-03-07T08:44:57;9.51;66.57
70851;DHT22;58475;49.662;9.636;2024-03-07T08:47:23;9.04;67.82
70851;DHT22;58475;49.662;9.636;2024-03-07T08:49:48;8.80;69.33
70851;DHT22;58475;49.662;9.636;2024-03-07T08:52:14;8.55;69.11
70851;DHT22;58475;49.662;9.636;2024-03-07T08:54:39;8.43;69.41
70851;DHT22;58475;49.662;9.636;2024-03-07T08:57:04;8.79;68.83
70851;DHT22;58475;49.662;9.636;2024-03-07T08:59:32;8.50;68.24
70851;DHT22;58475;49.662;9.636;2024-03-07T09:01:58;7.95;69.73
70851;DHT22;58475;49.662;9.636;2024-03-07T09:04:27;7.95;70.77
70851;DHT22;58475;49.662;9.636;2024-03-07T09:06:54;8.04;71.36
70851;DHT22;58475;49.662;9.636;2024-03-07T09:09:19;8.06;71.43
70851;DHT22;58475;49.662;9.636;2024-03-07T09:11:45;8.12;71.57
70851;DHT22;58475;49.662;9.636;2024-03-07T09:14:10;8.50;69.97
70851;DHT22;58475;49.662;9.636;2024-03-07T09:16:36;8.73;69.03
70851;DHT22;58475;49.662;9.636;2024-03-07T09:19:01;8.83;67.88
70851;DHT22;58475;49.662;9.636;2024-03-07T09:21:28;9.14;68.82
70851;DHT22;58475;49.662;9.636;2024-03-07T09:23:53;9.30;68.08
70851;DHT22;58475;49.662;9.636;2024-03-07T09:26:19;9.39;67.53
70851;DHT22;58475;49.662;9.636;2024-03-07T09:28:45;10.07;65.31
70851;DHT22;58475;49.662;9.636;2024-03-07T09:31:14;10.03;65.58
70851;DHT22;58475;49.662;9.636;2024-03-07T09:33:39;9.69;66.86
70851;DHT22;58475;49.662;9.636;2024-03-07T09:36:05;9.48;66.75
70851;DHT22;58475;49.662;9.636;2024-03-07T09:38:32;10.04;66.95
70851;DHT22;58475;49.662;9.636;2024-03-07T09:40:57;10.64;64.99
70851;DHT22;58475;49.662;9.636;2024-03-07T09:43:28;10.93;63.90
70851;DHT22;58475;49.662;9.636;2024-03-07T09:45:55;11.54;63.40
70851;DHT22;58475;49.662;9.636;2024-03-07T09:48:21;12.17;61.89
70851;DHT22;58475;49.662;9.636;2024-03-07T09:50:52;12.77;60.49
70851;DHT22;58475;49.662;9.636;2024-03-07T09:53:20;13.06;61.33
70851;DHT22;58475;49.662;9.636;2024-03-07T09:55:46;13.24;60.82
70851;DHT22;58475;49.662;9.636;2024-03-07T09:58:12;12.90;59.31
70851;DHT22;58475;49.662;9.636;2024-03-07T10:00:42;13.08;60.46
70851;DHT22;58475;49.662;9.636;2024-03-07T10:03:12;13.27;60.28
70851;DHT22;58475;49.662;9.636;2024-03-07T10:05:39;13.58;59.66
70851;DHT22;58475;49.662;9.636;2024-03-07T10:08:06;13.41;59.89
70851;DHT22;58475;49.662;9.636;2024-03-07T10:10:32;13.52;59.78
70851;DHT22;58475;49.662;9.636;2024-03-07T10:12:59;13.54;58.09
70851;DHT22;58475;49.662;9.636;2024-03-07T10:15:34;13.75;60.46
70851;DHT22;58475;49.662;9.636;2024-03-07T10:17:59;14.14;59.13
70851;DHT22;58475;49.662;9.636;2024-03-07T10:20:28;13.45;57.28
70851;DHT22;58475;49.662;9.636;2024-03-07T10:22:53;12.86;58.79
70851;DHT22;58475;49.662;9.636;2024-03-07T10:25:22;12.84;60.38
70851;DHT22;58475;49.662;9.636;2024-03-07T10:27:52;13.11;60.48
70851;DHT22;58475;49.662;9.636;2024-03-07T10:30:18;13.38;59.87
70851;DHT22;58475;49.662;9.636;2024-03-07T10:32:47;12.60;60.36
70851;DHT22;58475;49.662;9.636;2024-03-07T10:35:13;12.45;61.24
70851;DHT22;58475;49.662;9.636;2024-03-07T10:37:40;12.50;61.53
70851;DHT22;58475;49.662;9.636;2024-03-07T10:40:06;12.01;61.27
70851;DHT22;58475;49.662;9.636;2024-03-07T10:42:45;11.90;62.54
70851;DHT22;58475;49.662;9.636;2024-03-07T10:45:19;11.78;62.56
70851;DHT22;58475;49.662;9.636;2024-03-07T10:47:56;11.74;63.11
70851;DHT22;58475;49.662;9.636;2024-03-07T10:50:55;11.78;63.05
70851;DHT22;58475;49.662;9.636;2024-03-07T10:59:00;10.47;64.02
70851;DHT22;58475;49.662;9.636;2024-03-07T11:01:31;10.10;65.32
70851;DHT22;58475;49.662;9.636;2024-03-07T11:04:00;9.92;66.22
70851;DHT22;58475;49.662;9.636;2024-03-07T11:06:25;10.00;66.57
70851;DHT22;58475;49.662;9.636;2024-03-07T11:08:51;10.04;67.17
70851;DHT22;58475;49.662;9.636;2024-03-07T11:11:17;10.18;67.24
70851;DHT22;58475;49.662;9.636;2024-03-07T11:13:43;10.29;66.56
70851;DHT22;58475;49.662;9.636;2024-03-07T11:16:09;10.47;65.92
70851;DHT22;58475;49.662;9.636;2024-03-07T11:18:35;10.43;64.09
70851;DHT22;58475;49.662;9.636;2024-03-07T11:21:01;10.41;65.47
70851;DHT22;58475;49.662;9.636;2024-03-07T11:23:27;10.60;65.04
70851;DHT22;58475;49.662;9.636;2024-03-07T11:26:11;10.45;65.89
70851;DHT22;58475;49.662;9.636;2024-03-07T11:28:40;10.54;64.64
70851;DHT22;58475;49.662;9.636;2024-03-07T11:31:14;10.75;65.84
70851;DHT22;58475;49.662;9.636;2024-03-07T11:33:40;10.51;64.43
70851;DHT22;58475;49.662;9.636;2024-03-07T11:36:09;10.24;65.08
70851;DHT22;58475;49.662;9.636;2024-03-07T11:38:47;10.10;65.99
70851;DHT22;58475;49.662;9.636;2024-03-07T11:41:13;10.00;65.83
70851;DHT22;58475;49.662;9.636;2024-03-07T11:43:40;10.13;65.74
70851;DHT22;58475;49.662;9.636;2024-03-07T11:46:07;10.37;66.08
70851;DHT22;58475;49.662;9.636;2024-03-07T11:48:39;10.41;66.24
70851;DHT22;58475;49.662;9.636;2024-03-07T11:51:07;10.36;66.15
70851;DHT22;58475;49.662;9.636;2024-03-07T11:53:38;10.54;65.42
70851;DHT22;58475;49.662;9.636;2024-03-07T11:56:03;10.75;65.15
70851;DHT22;58475;49.662;9.636;2024-03-07T11:58:37;10.58;63.76
70851;DHT22;58475;49.662;9.636;2024-03-07T12:01:05;10.37;63.18
70851;DHT22;58475;49.662;9.636;2024-03-07T12:03:31;10.76;62.66
70851;DHT22;58475;49.662;9.636;2024-03-07T12:05:59;10.67;63.60
70851;DHT22;58475;49.662;9.636;2024-03-07T12:08:24;10.74;64.59
70851;DHT22;58475;49.662;9.636;2024-03-07T12:10:52;11.20;62.71
70851;DHT22;58475;49.662;9.636;2024-03-07T12:13:21;11.05;62.93
70851;DHT22;58475;49.662;9.636;2024-03-07T12:15:48;11.82;61.26
70851;DHT22;58475;49.662;9.636;2024-03-07T12:18:17;11.36;60.21
70851;DHT22;58475;49.662;9.636;2024-03-07T12:20:44;10.95;60.15
70851;DHT22;58475;49.662;9.636;2024-03-07T12:23:12;10.57;61.20
70851;DHT22;58475;49.662;9.636;2024-03-07T12:25:38;10.31;61.79
70851;DHT22;58475;49.662;9.636;2024-03-07T12:28:12;10.43;63.00
70851;DHT22;58475;49.662;9.636;2024-03-07T12:30:58;10.62;63.43
70851;DHT22;58475;49.662;9.636;2024-03-07T12:33:28;10.65;61.83
70851;DHT22;58475;49.662;9.636;2024-03-07T12:35:55;10.85;62.70
70851;DHT22;58475;49.662;9.636;2024-03-07T12:38:31;11.60;62.30
70851;DHT22;58475;49.662;9.636;2024-03-07T12:41:10;11.63;62.41
70851;DHT22;58475;49.662;9.636;2024-03-07T12:43:40;11.32;62.09
70851;DHT22;58475;49.662;9.636;2024-03-07T12:46:10;10.81;62.68
70851;DHT22;58475;49.662;9.636;2024-03-07T12:48:37;10.74;65.06
70851;DHT22;58475;49.662;9.636;2024-03-07T12:51:04;10.48;64.09
70851;DHT22;58475;49.662;9.636;2024-03-07T12:53:29;10.31;64.12
70851;DHT22;58475;49.662;9.636;2024-03-07T12:55:56;10.14;66.04
70851;DHT22;58475;49.662;9.636;2024-03-07T12:58:22;10.14;65.83
70851;DHT22;58475;49.662;9.636;2024-03-07T13:00:52;10.16;65.61
70851;DHT22;58475;49.662;9.636;2024-03-07T13:03:17;10.03;66.05
70851;DHT22;58475;49.662;9.636;2024-03-07T13:05:43;10.00;64.65
70851;DHT22;58475;49.662;9.636;2024-03-07T13:08:11;10.06;64.52
70851;DHT22;58475;49.662;9.636;2024-03-07T13:10:44;10.13;65.03
70851;DHT22;58475;49.662;9.636;2024-03-07T13:13:10;10.17;64.35
70851;DHT22;58475;49.662;9.636;2024-03-07T13:15:40;10.21;65.40
70851;DHT22;58475;49.662;9.636;2024-03-07T13:18:08;10.20;66.31
70851;DHT22;58475;49.662;9.636;2024-03-07T13:20:35;10.29;66.22
70851;DHT22;58475;49.662;9.636;2024-03-07T13:23:00;10.18;65.55
70851;DHT22;58475;49.662;9.636;2024-03-07T13:25:26;10.12;65.50
70851;DHT22;58475;49.662;9.636;2024-03-07T13:27:56;10.12;66.70
70851;DHT22;58475;49.662;9.636;2024-03-07T13:30:26;9.94;67.23
70851;DHT22;58475;49.662;9.636;2024-03-07T13:32:58;9.99;66.51
70851;DHT22;58475;49.662;9.636;2024-03-07T13:35:24;10.07;67.08
70851;DHT22;58475;49.662;9.636;2024-03-07T13:37:51;10.09;66.68
70851;DHT22;58475;49.662;9.636;2024-03-07T13:40:19;10.16;66.23
70851;DHT22;58475;49.662;9.636;2024-03-07T13:42:54;10.10;66.90
70851;DHT22;58475;49.662;9.636;2024-03-07T13:45:30;10.12;66.86
70851;DHT22;58475;49.662;9.636;2024-03-07T13:48:04;10.13;66.29
70851;DHT22;58475;49.662;9.636;2024-03-07T13:50:31;10.09;67.45
70851;DHT22;58475;49.662;9.636;2024-03-07T13:52:57;10.10;67.32
70851;DHT22;58475;49.662;9.636;2024-03-07T13:55:40;10.02;66.83
70851;DHT22;58475;49.662;9.636;2024-03-07T13:58:15;10.00;66.60
70851;DHT22;58475;49.662;9.636;2024-03-07T14:00:54;10.04;67.15
70851;DHT22;58475;49.662;9.636;2024-03-07T14:03:30;10.07;66.76
70851;DHT22;58475;49.662;9.636;2024-03-07T14:06:08;10.06;67.01
70851;DHT22;58475;49.662;9.636;2024-03-07T14:12:17;10.02;66.78
70851;DHT22;58475;49.662;9.636;2024-03-07T14:15:31;9.92;66.67
70851;DHT22;58475;49.662;9.636;2024-03-07T14:18:24;9.86;67.57
70851;DHT22;58475;49.662;9.636;2024-03-07T14:21:23;9.73;66.90
70851;DHT22;58475;49.662;9.636;2024-03-07T14:30:11;9.58;68.48
70851;DHT22;58475;49.662;9.636;2024-03-07T14:32:46;9.65;67.95
70851;DHT22;58475;49.662;9.636;2024-03-07T14:35:23;9.53;67.07
70851;DHT22;58475;49.662;9.636;2024-03-07T14:38:25;9.58;67.61
70851;DHT22;58475;49.662;9.636;2024-03-07T14:40:52;9.41;67.29
70851;DHT22;58475;49.662;9.636;2024-03-07T14:43:18;9.34;67.50
70851;DHT22;58475;49.662;9.636;2024-03-07T14:45:45;9.38;67.76
70851;DHT22;58475;49.662;9.636;2024-03-07T14:48:12;9.31;67.87
70851;DHT22;58475;49.662;9.636;2024-03-07T14:50:41;9.31;67.46
70851;DHT22;58475;49.662;9.636;2024-03-07T14:53:07;9.31;67.77
70851;DHT22;58475;49.662;9.636;2024-03-07T14:55:34;9.27;67.37
70851;DHT22;58475;49.662;9.636;2024-03-07T14:58:00;9.20;67.87
70851;DHT22;58475;49.662;9.636;2024-03-07T15:00:26;9.13;68.45
70851;DHT22;58475;49.662;9.636;2024-03-07T15:02:53;9.11;68.21
70851;DHT22;58475;49.662;9.636;2024-03-07T15:05:25;9.11;67.74
70851;DHT22;58475;49.662;9.636;2024-03-07T15:07:51;9.11;68.26
70851;DHT22;58475;49.662;9.636;2024-03-07T15:10:22;9.08;68.39
70851;DHT22;58475;49.662;9.636;2024-03-07T15:12:49;8.96;67.21
70851;DHT22;58475;49.662;9.636;2024-03-07T15:15:14;8.99;68.61
70851;DHT22;58475;49.662;9.636;2024-03-07T15:17:43;9.07;67.97
70851;DHT22;58475;49.662;9.636;2024-03-07T15:20:10;8.99;67.43
70851;DHT22;58475;49.662;9.636;2024-03-07T15:22:50;8.93;69.50
70851;DHT22;58475;49.662;9.636;2024-03-07T15:25:15;8.87;68.13
70851;DHT22;58475;49.662;9.636;2024-03-07T15:27:43;8.91;69.25
70851;DHT22;58475;49.662;9.636;2024-03-07T15:30:09;8.83;68.23
70851;DHT22;58475;49.662;9.636;2024-03-07T15:32:40;8.79;67.41
70851;DHT22;58475;49.662;9.636;2024-03-07T15:35:08;8.69;68.66
70851;DHT22;58475;49.662;9.636;2024-03-07T15:37:37;8.69;68.02
70851;DHT22;58475;49.662;9.636;2024-03-07T15:40:08;8.64;68.08
70851;DHT22;58475;49.662;9.636;2024-03-07T15:42:38;8.62;68.94
70851;DHT22;58475;49.662;9.636;2024-03-07T15:45:05;8.67;69.35
70851;DHT22;58475;49.662;9.636;2024-03-07T15:47:37;8.62;68.31
70851;DHT22;58475;49.662;9.636;2024-03-07T15:50:05;8.56;68.54
70851;DHT22;58475;49.662;9.636;2024-03-07T15:52:30;8.57;69.16
70851;DHT22;58475;49.662;9.636;2024-03-07T15:55:00;8.57;69.30
70851;DHT22;58475;49.662;9.636;2024-03-07T15:57:25;8.52;69.63
70851;DHT22;58475;49.662;9.636;2024-03-07T15:59:52;8.50;67.78
70851;DHT22;58475;49.662;9.636;2024-03-07T16:02:19;8.48;67.54
70851;DHT22;58475;49.662;9.636;2024-03-07T16:04:47;8.46;68.15
70851;DHT22;58475;49.662;9.636;2024-03-07T16:07:12;8.50;69.42